Time;durP1;ratioP1;P1;durP2;ratioP2;P2;SDS_P1;SDS_P2;PMS_P1;PMS_P2;Temp;Humidity;BMP_temperature;BMP_pressure;BME280_temperature;BME280_humidity;BME280_pressure;Samples;Min_cycle;Max_cycle;Signal;HPM_P1;HPM_P2
2021/05/22 00:00:31;;;;;;;4.60;2.65;;;14.20;82.60;;;;;;5034314;28;20037;-57
2021/05/22 00:02:57;;;;;;;5.03;2.70;;;14.00;83.20;;;;;;5033211;28;20113;-48
2021/05/22 00:05:22;;;;;;;3.50;2.92;;;14.00;83.20;;;;;;5032259;28;20057;-52
2021/05/22 00:07:48;;;;;;;3.30;2.65;;;14.00;83.30;;;;;;5041128;28;20700;-50
2021/05/22 00:10:14;;;;;;;4.97;3.28;;;13.90;83.80;;;;;;5037442;28;20120;-54
2021/05/22 00:12:42;;;;;;;4.72;2.80;;;14.00;83.90;;;;;;5032548;28;20029;-52
2021/05/22 00:15:10;;;;;;;4.25;2.90;;;14.00;83.80;;;;;;5031164;28;20037;-52
2021/05/22 00:17:36;;;;;;;5.28;2.83;;;14.00;83.40;;;;;;5024808;28;20038;-51
2021/05/22 00:20:04;;;;;;;3.95;3.03;;;14.20;82.90;;;;;;5031971;28;20375;-53
2021/05/22 00:22:30;;;;;;;4.03;3.00;;;14.20;82.80;;;;;;5032815;28;20029;-55
2021/05/22 00:24:55;;;;;;;5.45;2.88;;;14.30;82.50;;;;;;5030699;28;20394;-54
2021/05/22 00:27:21;;;;;;;10.02;3.03;;;14.20;82.70;;;;;;5032110;28;20049;-49
2021/05/22 00:29:46;;;;;;;4.72;2.80;;;14.10;82.70;;;;;;5030675;28;20060;-56
2021/05/22 00:32:12;;;;;;;4.93;2.85;;;14.10;83.30;;;;;;5032465;28;20087;-55
2021/05/22 00:34:37;;;;;;;3.50;2.80;;;13.80;83.80;;;;;;5032031;28;20080;-48
2021/05/22 00:37:03;;;;;;;6.85;3.00;;;13.70;84.70;;;;;;5032414;28;20040;-48
2021/05/22 00:39:29;;;;;;;3.80;2.70;;;13.60;85.10;;;;;;5031799;28;20489;-57
2021/05/22 00:41:54;;;;;;;3.67;2.90;;;13.50;85.80;;;;;;5032002;28;20531;-53
2021/05/22 00:44:30;;;;;;;3.35;2.80;;;13.50;85.60;;;;;;5032329;28;20116;-47
2021/05/22 00:46:56;;;;;;;3.72;2.95;;;13.50;85.40;;;;;;5031997;28;20397;-53
2021/05/22 00:49:22;;;;;;;4.72;3.10;;;13.40;85.30;;;;;;5031757;28;20081;-49
2021/05/22 00:51:47;;;;;;;3.60;2.60;;;13.40;85.50;;;;;;5032240;28;20489;-48
2021/05/22 00:54:13;;;;;;;4.70;2.90;;;13.40;85.50;;;;;;5031679;28;20033;-47
2021/05/22 00:56:38;;;;;;;4.53;2.60;;;13.40;85.40;;;;;;5032413;28;20056;-51
2021/05/22 00:59:04;;;;;;;4.38;2.85;;;13.40;85.10;;;;;;5031338;28;20567;-50
2021/05/22 01:01:30;;;;;;;4.38;2.70;;;13.40;85.30;;;;;;5031480;28;20025;-50
2021/05/22 01:03:55;;;;;;;3.45;2.53;;;13.30;85.60;;;;;;5031840;28;20021;-50
2021/05/22 01:06:23;;;;;;;4.55;2.85;;;13.30;85.80;;;;;;5031598;28;20045;-53
2021/05/22 01:08:52;;;;;;;4.18;2.80;;;13.20;85.90;;;;;;5045433;28;20056;-50
2021/05/22 01:11:21;;;;;;;4.90;3.08;;;13.20;86.30;;;;;;5030992;28;20067;-55
2021/05/22 01:14:20;;;;;;;3.28;2.70;;;13.30;86.00;;;;;;5031059;28;20040;-51
2021/05/22 01:16:47;;;;;;;4.35;2.60;;;13.30;85.70;;;;;;5026242;28;20044;-50
2021/05/22 01:19:37;;;;;;;4.70;2.70;;;13.30;85.70;;;;;;5029708;28;20040;-54
2021/05/22 01:22:04;;;;;;;4.80;2.88;;;13.30;86.20;;;;;;5032077;28;20033;-55
2021/05/22 01:24:32;;;;;;;5.18;2.90;;;13.20;86.30;;;;;;5031360;28;20087;-52
2021/05/22 01:26:58;;;;;;;3.63;2.70;;;13.10;86.90;;;;;;5031941;28;20037;-52
2021/05/22 01:29:24;;;;;;;5.78;3.42;;;13.10;87.10;;;;;;5032080;28;20103;-51
2021/05/22 01:31:50;;;;;;;5.20;3.05;;;13.00;87.60;;;;;;5031504;28;20529;-54
2021/05/22 01:34:16;;;;;;;3.70;3.28;;;12.90;88.00;;;;;;5030994;28;20048;-52
2021/05/22 01:36:42;;;;;;;3.65;2.60;;;12.90;88.10;;;;;;5031604;28;20107;-49
2021/05/22 01:39:07;;;;;;;4.50;3.05;;;13.00;87.70;;;;;;5030919;28;20061;-55
2021/05/22 01:41:33;;;;;;;5.85;3.13;;;12.90;88.10;;;;;;5031280;28;20034;-49
2021/05/22 01:44:02;;;;;;;5.10;3.15;;;13.00;87.70;;;;;;5031186;28;20065;-52
2021/05/22 01:46:30;;;;;;;4.00;2.95;;;13.00;87.40;;;;;;5030112;28;20121;-52
2021/05/22 01:48:58;;;;;;;3.28;2.72;;;13.10;87.20;;;;;;5031508;28;20117;-48
2021/05/22 01:51:25;;;;;;;4.68;2.63;;;13.10;86.70;;;;;;5031384;28;20025;-51
2021/05/22 01:53:52;;;;;;;5.38;2.92;;;13.20;86.40;;;;;;5030770;28;20489;-53
2021/05/22 01:56:19;;;;;;;4.45;2.75;;;13.20;86.50;;;;;;5031140;28;20048;-50
2021/05/22 01:58:48;;;;;;;4.50;2.55;;;13.10;86.90;;;;;;5030951;28;20026;-49
2021/05/22 02:01:14;;;;;;;3.75;2.60;;;13.10;87.50;;;;;;5031107;28;20075;-53
2021/05/22 02:03:47;;;;;;;3.90;2.67;;;13.00;87.00;;;;;;5030119;28;20057;-49
2021/05/22 02:06:28;;;;;;;5.45;2.75;;;13.00;87.10;;;;;;5031204;28;20508;-51
2021/05/22 02:08:56;;;;;;;3.30;2.78;;;13.10;86.90;;;;;;5038639;28;20053;-50
2021/05/22 02:11:24;;;;;;;7.85;3.90;;;13.10;86.40;;;;;;5030888;28;20061;-52
2021/05/22 02:13:51;;;;;;;4.35;2.88;;;13.20;86.20;;;;;;5031278;28;20041;-48
2021/05/22 02:16:24;;;;;;;5.93;2.80;;;13.20;86.20;;;;;;5028989;28;20039;-48
2021/05/22 02:18:51;;;;;;;4.15;2.55;;;13.30;85.90;;;;;;5026793;28;20029;-51
2021/05/22 02:21:17;;;;;;;3.88;2.97;;;13.10;86.30;;;;;;5030964;28;20108;-54
2021/05/22 02:23:46;;;;;;;5.63;2.78;;;13.10;86.70;;;;;;5030990;28;20462;-54
2021/05/22 02:26:12;;;;;;;4.43;2.85;;;13.10;86.40;;;;;;5028994;28;20113;-49
2021/05/22 02:28:40;;;;;;;5.35;2.58;;;13.20;86.20;;;;;;5034144;28;20033;-50
2021/05/22 02:31:07;;;;;;;3.42;2.58;;;13.20;86.20;;;;;;5034570;28;20029;-48
2021/05/22 02:33:33;;;;;;;6.68;3.08;;;13.10;86.60;;;;;;5034413;28;20029;-52
2021/05/22 02:35:59;;;;;;;5.00;2.97;;;13.00;86.70;;;;;;5034591;28;20462;-49
2021/05/22 02:38:30;;;;;;;4.55;2.63;;;13.10;86.40;;;;;;5033890;28;20034;-56
2021/05/22 02:40:59;;;;;;;5.15;3.00;;;13.10;86.60;;;;;;5034242;28;20029;-52
2021/05/22 02:43:26;;;;;;;4.10;2.53;;;13.10;86.70;;;;;;5034537;28;20041;-55
2021/05/22 02:45:55;;;;;;;3.22;2.70;;;13.10;86.40;;;;;;5034515;28;20022;-51
2021/05/22 02:48:21;;;;;;;3.35;2.60;;;13.10;86.80;;;;;;5033493;28;20022;-50
2021/05/22 02:50:49;;;;;;;3.95;2.45;;;13.20;86.50;;;;;;5032399;28;20030;-50
2021/05/22 02:53:20;;;;;;;4.10;2.50;;;13.10;86.90;;;;;;5034245;28;20067;-55
2021/05/22 02:55:50;;;;;;;3.03;2.72;;;12.90;87.10;;;;;;5034224;28;20029;-54
2021/05/22 02:58:17;;;;;;;5.97;2.90;;;12.90;87.60;;;;;;5033787;28;20059;-50
2021/05/22 03:00:44;;;;;;;4.55;2.72;;;12.70;87.80;;;;;;5033765;28;20430;-49
2021/05/22 03:03:10;;;;;;;4.65;2.55;;;12.70;88.10;;;;;;5032825;28;20110;-51
2021/05/22 03:05:35;;;;;;;6.50;2.75;;;12.70;88.10;;;;;;5033724;28;20037;-51
2021/05/22 03:08:02;;;;;;;3.88;2.70;;;12.60;88.50;;;;;;5040312;28;20469;-50
2021/05/22 03:10:29;;;;;;;5.68;2.65;;;12.70;88.60;;;;;;5034224;28;20068;-54
2021/05/22 03:12:55;;;;;;;3.47;2.30;;;12.60;88.50;;;;;;5032549;28;20090;-52
2021/05/22 03:15:20;;;;;;;4.57;3.20;;;12.50;88.30;;;;;;5033888;28;20045;-52
2021/05/22 03:17:46;;;;;;;3.78;2.75;;;12.60;88.70;;;;;;5025536;28;20040;-53
2021/05/22 03:20:12;;;;;;;4.10;2.97;;;12.60;88.50;;;;;;5033734;28;20481;-51
2021/05/22 03:22:38;;;;;;;5.03;2.70;;;12.60;88.80;;;;;;5034113;28;20389;-49
2021/05/22 03:25:04;;;;;;;3.00;2.30;;;12.50;88.10;;;;;;5033575;28;20065;-53
2021/05/22 03:27:31;;;;;;;6.22;3.17;;;12.50;87.90;;;;;;5033725;28;20049;-54
2021/05/22 03:29:57;;;;;;;3.55;2.22;;;12.40;87.00;;;;;;5033400;28;20037;-50
2021/05/22 03:32:23;;;;;;;3.05;2.30;;;12.40;85.30;;;;;;5033299;28;20060;-52
2021/05/22 03:34:49;;;;;;;3.47;2.15;;;12.30;85.60;;;;;;5039885;28;20091;-54
2021/05/22 03:37:15;;;;;;;4.18;2.25;;;12.30;86.00;;;;;;5038824;28;20034;-54
2021/05/22 03:39:40;;;;;;;2.75;2.05;;;12.20;85.10;;;;;;5032463;28;20097;-54
2021/05/22 03:42:06;;;;;;;3.03;2.30;;;12.10;85.40;;;;;;5033300;28;20029;-52
2021/05/22 03:44:32;;;;;;;3.80;2.00;;;12.00;85.80;;;;;;5032897;28;20021;-48
2021/05/22 03:46:58;;;;;;;6.28;2.13;;;12.10;85.50;;;;;;5033377;28;20060;-50
2021/05/22 03:49:23;;;;;;;4.18;2.50;;;12.10;85.60;;;;;;5032273;28;20044;-48
2021/05/22 03:51:49;;;;;;;3.03;1.92;;;12.30;85.00;;;;;;5033276;28;20068;-53
2021/05/22 03:54:15;;;;;;;2.85;2.30;;;12.30;84.70;;;;;;5032636;28;20370;-54
2021/05/22 03:56:40;;;;;;;3.67;2.25;;;12.30;84.60;;;;;;5032975;28;20029;-48
2021/05/22 03:59:06;;;;;;;2.63;1.95;;;12.40;84.10;;;;;;5033087;28;20041;-48
2021/05/22 04:01:31;;;;;;;4.03;1.83;;;12.50;83.70;;;;;;5032382;28;20049;-52
2021/05/22 04:03:57;;;;;;;3.30;1.80;;;12.50;83.70;;;;;;5031173;28;20040;-55
2021/05/22 04:06:23;;;;;;;3.55;2.20;;;12.60;84.10;;;;;;5032791;28;20029;-54
2021/05/22 04:08:48;;;;;;;5.93;2.17;;;12.50;84.50;;;;;;5044849;28;20051;-50
2021/05/22 04:11:14;;;;;;;6.30;2.53;;;12.40;85.40;;;;;;5032936;28;20033;-48
2021/05/22 04:13:40;;;;;;;4.70;2.03;;;12.40;85.70;;;;;;5032726;28;20088;-55
2021/05/22 04:16:05;;;;;;;2.03;1.83;;;12.30;86.70;;;;;;5031761;28;20037;-54
2021/05/22 04:18:31;;;;;;;3.22;2.15;;;12.30;85.50;;;;;;5024995;28;20033;-51
2021/05/22 04:20:56;;;;;;;4.47;1.73;;;12.20;85.60;;;;;;5033837;28;20078;-53
2021/05/22 04:23:22;;;;;;;3.28;1.73;;;12.10;84.80;;;;;;5033968;28;20109;-53
2021/05/22 04:25:48;;;;;;;3.20;1.60;;;12.10;85.80;;;;;;5032430;28;20120;-53
2021/05/22 04:28:13;;;;;;;3.72;1.83;;;12.10;85.90;;;;;;5032632;28;20048;-49
2021/05/22 04:30:39;;;;;;;5.18;1.88;;;11.90;85.70;;;;;;5030773;28;20051;-53
2021/05/22 04:33:05;;;;;;;6.97;1.85;;;11.90;86.40;;;;;;5032356;28;20029;-52
2021/05/22 04:35:31;;;;;;;4.78;2.00;;;11.90;86.80;;;;;;5032038;28;20091;-49
2021/05/22 04:37:57;;;;;;;2.90;2.15;;;11.80;86.90;;;;;;5045665;28;20038;-51
2021/05/22 04:40:22;;;;;;;3.53;2.13;;;11.70;87.70;;;;;;5031705;28;20468;-56
2021/05/22 04:42:48;;;;;;;3.75;1.90;;;11.70;88.00;;;;;;5034927;28;20041;-52
2021/05/22 04:45:14;;;;;;;3.58;1.90;;;11.50;89.10;;;;;;5038751;28;20061;-50
2021/05/22 04:47:40;;;;;;;2.92;2.00;;;11.50;89.50;;;;;;5031893;28;20397;-57
2021/05/22 04:50:07;;;;;;;5.70;1.80;;;11.50;89.40;;;;;;5032005;28;20025;-50
2021/05/22 04:52:33;;;;;;;3.15;1.85;;;11.60;88.90;;;;;;5031846;28;20041;-53
2021/05/22 04:54:59;;;;;;;2.13;1.70;;;11.60;88.90;;;;;;5032460;28;20025;-54
2021/05/22 04:57:24;;;;;;;3.35;1.92;;;11.60;88.80;;;;;;5032144;28;20132;-48
2021/05/22 04:59:50;;;;;;;6.05;2.20;;;11.60;88.80;;;;;;5031877;28;20041;-51
2021/05/22 05:02:15;;;;;;;3.85;2.00;;;11.50;89.00;;;;;;5030486;28;20044;-52
2021/05/22 05:04:41;;;;;;;4.20;2.42;;;11.40;89.00;;;;;;5028425;28;20095;-50
2021/05/22 05:07:07;;;;;;;4.55;1.58;;;11.50;89.10;;;;;;5032476;28;20025;-53
2021/05/22 05:09:34;;;;;;;3.70;2.30;;;11.50;88.30;;;;;;5031988;28;20041;-49
2021/05/22 05:12:04;;;;;;;4.40;2.28;;;11.50;87.90;;;;;;5031729;28;20030;-49
2021/05/22 05:14:29;;;;;;;3.88;2.15;;;11.50;87.20;;;;;;5030482;28;20044;-48
2021/05/22 05:16:55;;;;;;;5.43;2.00;;;11.40;87.80;;;;;;5024449;28;20498;-52
2021/05/22 05:19:23;;;;;;;4.70;2.35;;;11.50;87.40;;;;;;5030546;28;20168;-53
2021/05/22 05:21:49;;;;;;;3.08;2.20;;;11.50;86.80;;;;;;5032316;28;20105;-52
2021/05/22 05:24:14;;;;;;;2.33;2.03;;;11.50;87.20;;;;;;5031071;28;20694;-51
2021/05/22 05:26:40;;;;;;;4.00;1.70;;;11.60;86.80;;;;;;5031301;28;20501;-50
2021/05/22 05:29:05;;;;;;;6.35;2.20;;;11.70;86.10;;;;;;5031051;28;20048;-52
2021/05/22 05:31:31;;;;;;;5.03;2.00;;;11.70;86.80;;;;;;5031590;28;20026;-51
2021/05/22 05:33:56;;;;;;;3.47;2.08;;;11.90;86.00;;;;;;5031053;28;20033;-49
2021/05/22 05:36:22;;;;;;;4.40;2.10;;;11.90;85.70;;;;;;5030402;28;20048;-50
2021/05/22 05:38:47;;;;;;;4.35;2.33;;;12.10;85.30;;;;;;5031175;28;20116;-53
2021/05/22 05:41:13;;;;;;;4.95;2.10;;;12.30;84.10;;;;;;5029802;28;20021;-50
2021/05/22 05:43:39;;;;;;;3.92;2.47;;;12.20;83.90;;;;;;5031736;28;20655;-49
2021/05/22 05:46:04;;;;;;;6.28;1.88;;;12.30;83.40;;;;;;5031192;28;20041;-53
2021/05/22 05:48:30;;;;;;;6.00;2.38;;;12.30;83.60;;;;;;5031546;28;20017;-55
2021/05/22 05:50:55;;;;;;;4.88;2.00;;;12.20;83.90;;;;;;5032398;28;20060;-52
2021/05/22 05:53:21;;;;;;;2.58;1.90;;;12.10;83.30;;;;;;5031691;28;20049;-51
2021/05/22 05:55:47;;;;;;;6.50;2.00;;;12.20;83.20;;;;;;5031435;28;20116;-51
2021/05/22 05:58:13;;;;;;;3.85;1.92;;;12.40;83.00;;;;;;5030825;28;20026;-51
2021/05/22 06:00:39;;;;;;;5.97;2.20;;;12.20;82.80;;;;;;5033536;28;20177;-56
2021/05/22 06:03:05;;;;;;;4.07;2.00;;;12.10;83.30;;;;;;5035841;28;20057;-51
2021/05/22 06:05:31;;;;;;;5.28;2.63;;;12.20;82.70;;;;;;5035100;28;20072;-55
2021/05/22 06:07:56;;;;;;;3.35;1.83;;;12.50;82.20;;;;;;5034822;28;20037;-51
2021/05/22 06:10:22;;;;;;;4.05;1.70;;;12.60;80.90;;;;;;5034887;28;20060;-53
2021/05/22 06:12:48;;;;;;;4.65;2.33;;;12.60;81.50;;;;;;5035587;28;20037;-48
2021/05/22 06:17:40;;;;;;;4.82;2.00;;;12.50;81.10;;;;;;5027029;28;20397;-54
2021/05/22 06:20:06;;;;;;;5.30;2.42;;;12.50;80.90;;;;;;5034964;28;20038;-48
2021/05/22 06:22:32;;;;;;;4.07;2.00;;;12.40;81.90;;;;;;5034837;28;20026;-48
2021/05/22 06:24:58;;;;;;;4.63;2.30;;;12.50;82.10;;;;;;5034651;28;20052;-51
2021/05/22 06:27:24;;;;;;;12.15;3.70;;;12.40;82.30;;;;;;5034810;28;20084;-50
2021/05/22 06:29:50;;;;;;;3.33;2.03;;;12.40;82.80;;;;;;5034175;28;20037;-50
2021/05/22 06:32:16;;;;;;;4.05;2.40;;;12.60;83.00;;;;;;5034789;28;20033;-54
2021/05/22 06:34:41;;;;;;;6.82;2.15;;;12.70;82.10;;;;;;5032949;28;20037;-55
2021/05/22 06:37:07;;;;;;;5.50;2.30;;;12.70;82.20;;;;;;5013610;28;20038;-55
2021/05/22 06:39:33;;;;;;;4.60;2.33;;;12.70;82.50;;;;;;5031246;28;20125;-49
2021/05/22 06:41:58;;;;;;;6.45;2.30;;;12.80;82.60;;;;;;5034330;28;20647;-52
2021/05/22 06:44:28;;;;;;;3.97;2.20;;;12.80;82.20;;;;;;5034304;28;20401;-49
2021/05/22 06:46:53;;;;;;;6.97;2.67;;;12.90;82.10;;;;;;5034199;28;20044;-53
2021/05/22 06:49:19;;;;;;;8.55;2.42;;;12.80;82.50;;;;;;5033844;28;20408;-54
2021/05/22 06:51:45;;;;;;;4.60;2.40;;;13.00;81.70;;;;;;5032873;28;20057;-53
2021/05/22 06:54:11;;;;;;;6.78;2.35;;;13.10;81.40;;;;;;5032965;28;20138;-51
2021/05/22 06:56:37;;;;;;;6.10;2.30;;;12.90;82.00;;;;;;5034050;28;20045;-53
2021/05/22 06:59:04;;;;;;;5.47;2.20;;;13.00;82.30;;;;;;5036851;28;20108;-52
2021/05/22 07:01:29;;;;;;;4.85;2.38;;;13.10;82.00;;;;;;5034418;28;20061;-57
2021/05/22 07:03:55;;;;;;;4.75;2.33;;;13.10;81.40;;;;;;5041018;28;20079;-51
2021/05/22 07:06:23;;;;;;;3.92;2.10;;;13.10;81.00;;;;;;5050925;28;20668;-52
2021/05/22 07:08:50;;;;;;;5.25;2.30;;;13.10;80.90;;;;;;5055542;28;20036;-52
2021/05/22 07:11:16;;;;;;;6.07;2.35;;;13.20;81.60;;;;;;5051604;28;20400;-51
2021/05/22 07:13:42;;;;;;;7.55;2.58;;;13.20;80.70;;;;;;5052586;28;20029;-52
2021/05/22 07:16:07;;;;;;;4.97;2.17;;;13.30;80.20;;;;;;5050754;28;20516;-51
2021/05/22 07:18:33;;;;;;;4.65;2.60;;;13.40;80.10;;;;;;5053557;28;20401;-57
2021/05/22 07:20:58;;;;;;;5.43;2.38;;;13.60;80.10;;;;;;5046196;28;20066;-53
2021/05/22 07:23:24;;;;;;;7.38;2.40;;;13.70;79.50;;;;;;5051190;28;20108;-52
2021/05/22 07:25:50;;;;;;;6.07;2.10;;;13.40;78.00;;;;;;5048914;28;20057;-50
2021/05/22 07:28:16;;;;;;;7.30;2.40;;;13.30;79.10;;;;;;5048422;28;20431;-57
2021/05/22 07:30:42;;;;;;;3.80;2.05;;;13.50;79.40;;;;;;5049392;28;20036;-54
2021/05/22 07:33:08;;;;;;;3.92;2.00;;;13.50;79.10;;;;;;5053395;28;20037;-52
2021/05/22 07:35:33;;;;;;;3.38;1.98;;;13.50;79.00;;;;;;5039915;28;20045;-50
2021/05/22 07:37:59;;;;;;;4.82;2.05;;;13.40;80.20;;;;;;5045777;28;20106;-55
2021/05/22 07:40:25;;;;;;;3.08;2.20;;;13.70;79.30;;;;;;5032165;28;20037;-51
2021/05/22 07:42:50;;;;;;;4.95;2.20;;;13.80;77.90;;;;;;5038775;28;20064;-56
2021/05/22 07:45:18;;;;;;;4.97;2.10;;;14.00;77.40;;;;;;5032520;28;20504;-52
2021/05/22 07:47:47;;;;;;;3.25;2.00;;;13.80;76.90;;;;;;5032348;28;20034;-51
2021/05/22 07:50:13;;;;;;;3.58;1.95;;;13.70;77.00;;;;;;5046722;28;20033;-55
2021/05/22 07:52:40;;;;;;;6.43;2.10;;;13.90;76.50;;;;;;5052679;28;20140;-56
2021/05/22 07:55:08;;;;;;;4.13;2.20;;;14.10;75.10;;;;;;5051515;28;20025;-53
2021/05/22 07:57:34;;;;;;;4.60;2.38;;;14.10;75.10;;;;;;5052519;28;20095;-51
2021/05/22 08:00:00;;;;;;;9.98;3.40;;;14.10;74.20;;;;;;5050528;28;20484;-55
2021/05/22 08:02:26;;;;;;;4.75;2.13;;;13.90;75.20;;;;;;5051755;28;20025;-55
2021/05/22 08:04:51;;;;;;;5.00;2.72;;;13.80;75.80;;;;;;5047843;28;20036;-53
2021/05/22 08:07:17;;;;;;;2.55;1.83;;;13.90;75.80;;;;;;5052284;28;20043;-58
2021/05/22 08:09:43;;;;;;;5.85;2.67;;;14.00;74.40;;;;;;5048272;28;20036;-51
2021/05/22 08:12:08;;;;;;;6.10;2.15;;;14.10;74.70;;;;;;5052876;28;20079;-51
2021/05/22 08:14:34;;;;;;;4.15;2.00;;;13.90;72.70;;;;;;5045603;28;20067;-53
2021/05/22 08:16:59;;;;;;;4.22;2.40;;;14.00;75.40;;;;;;5047795;28;20041;-48
2021/05/22 08:19:25;;;;;;;3.58;2.15;;;13.90;72.20;;;;;;5049155;28;20033;-61
2021/05/22 08:21:51;;;;;;;4.72;2.40;;;13.90;72.30;;;;;;5035123;28;20084;-65
2021/05/22 08:24:16;;;;;;;6.05;2.40;;;13.80;73.40;;;;;;5031578;28;20087;-53
2021/05/22 08:26:43;;;;;;;5.80;2.65;;;13.90;73.00;;;;;;5033068;28;20042;-58
2021/05/22 08:29:09;;;;;;;7.32;3.00;;;14.20;73.30;;;;;;5038963;28;20045;-67
2021/05/22 08:31:36;;;;;;;6.20;3.03;;;14.10;71.20;;;;;;5040264;28;20518;-57
2021/05/22 08:34:02;;;;;;;4.72;2.22;;;14.20;70.30;;;;;;5048049;28;20050;-54
2021/05/22 08:36:29;;;;;;;5.45;2.10;;;14.60;69.80;;;;;;5045051;28;20092;-53
2021/05/22 08:38:55;;;;;;;4.57;2.45;;;14.60;69.70;;;;;;5050178;28;20079;-55
2021/05/22 08:41:21;;;;;;;8.85;2.58;;;14.70;69.70;;;;;;5045971;28;20017;-51
2021/05/22 08:43:48;;;;;;;7.75;2.70;;;14.60;69.80;;;;;;5041382;28;20035;-51
2021/05/22 08:46:16;;;;;;;5.10;2.20;;;14.60;69.00;;;;;;5041254;28;20033;-52
2021/05/22 08:48:43;;;;;;;5.43;2.60;;;14.30;69.30;;;;;;5047684;28;20037;-55
2021/05/22 08:51:09;;;;;;;5.65;2.60;;;14.30;69.60;;;;;;5051308;28;20025;-52
2021/05/22 08:53:35;;;;;;;6.50;2.40;;;14.20;70.00;;;;;;5047796;28;20032;-49
2021/05/22 08:56:02;;;;;;;3.03;2.13;;;14.20;70.40;;;;;;5051142;28;20040;-54
2021/05/22 08:58:27;;;;;;;7.45;2.70;;;14.40;70.00;;;;;;5042108;28;20055;-50
2021/05/22 09:00:53;;;;;;;3.63;2.25;;;14.50;69.90;;;;;;5047029;28;20487;-58
2021/05/22 09:03:20;;;;;;;3.90;2.78;;;14.80;69.50;;;;;;5044751;28;20043;-54
2021/05/22 09:05:46;;;;;;;4.60;2.40;;;14.80;67.50;;;;;;5044113;28;20029;-53
2021/05/22 09:08:15;;;;;;;8.32;3.03;;;14.70;67.40;;;;;;5045675;28;20033;-55
2021/05/22 09:10:44;;;;;;;8.52;2.47;;;14.50;68.30;;;;;;5045361;28;20549;-51
2021/05/22 09:13:13;;;;;;;5.32;2.08;;;14.50;68.70;;;;;;5050863;28;20021;-53
2021/05/22 09:15:41;;;;;;;6.65;2.30;;;14.60;67.50;;;;;;5043239;28;20025;-53
2021/05/22 09:18:11;;;;;;;7.97;2.63;;;14.70;66.60;;;;;;5048779;28;20666;-58
2021/05/22 09:20:52;;;;;;;4.72;3.15;;;14.70;66.70;;;;;;5041655;28;20122;-56
2021/05/22 09:23:22;;;;;;;3.85;2.33;;;14.80;66.90;;;;;;5032438;28;20035;-53
2021/05/22 09:25:53;;;;;;;5.20;2.28;;;14.70;68.10;;;;;;5031811;28;20030;-54
2021/05/22 09:28:28;;;;;;;5.78;2.15;;;14.80;68.30;;;;;;5035304;28;20161;-52
2021/05/22 09:30:55;;;;;;;6.20;2.17;;;14.70;67.50;;;;;;5031457;28;20030;-54
2021/05/22 09:33:29;;;;;;;5.88;2.60;;;14.70;67.70;;;;;;5032426;28;20037;-54
2021/05/22 09:36:13;;;;;;;10.93;2.92;;;14.60;68.30;;;;;;5034015;28;20100;-50
2021/05/22 09:38:39;;;;;;;6.40;2.80;;;14.80;69.50;;;;;;5035196;28;20501;-53
2021/05/22 09:41:21;;;;;;;3.58;2.33;;;15.00;67.50;;;;;;5046390;28;20394;-56
2021/05/22 09:44:10;;;;;;;7.18;2.50;;;15.00;66.40;;;;;;5036301;28;20036;-54
2021/05/22 09:46:46;;;;;;;4.25;2.20;;;15.00;65.10;;;;;;5033308;28;20030;-55
2021/05/22 09:49:29;;;;;;;5.72;2.30;;;15.00;66.20;;;;;;5048844;28;20029;-55
2021/05/22 09:51:59;;;;;;;6.10;2.03;;;14.90;66.00;;;;;;5035585;28;20099;-53
2021/05/22 09:54:42;;;;;;;5.00;2.22;;;14.70;65.20;;;;;;5026370;28;20531;-55
2021/05/22 09:57:10;;;;;;;5.78;2.35;;;14.60;65.90;;;;;;5033675;28;20052;-55
2021/05/22 09:59:36;;;;;;;4.93;2.13;;;14.90;65.60;;;;;;5046494;28;20114;-54
2021/05/22 10:02:02;;;;;;;5.03;2.38;;;14.80;66.70;;;;;;5040410;28;20710;-50
2021/05/22 10:04:28;;;;;;;7.35;2.20;;;15.20;65.80;;;;;;5034122;28;20029;-55
2021/05/22 10:06:56;;;;;;;7.28;2.45;;;15.30;65.30;;;;;;5033725;28;20037;-55
2021/05/22 10:09:22;;;;;;;8.90;2.60;;;15.20;63.90;;;;;;5033115;28;20037;-55
2021/05/22 10:12:04;;;;;;;3.83;2.20;;;15.10;64.90;;;;;;5045067;28;20033;-58
2021/05/22 10:14:33;;;;;;;5.32;2.28;;;15.20;64.30;;;;;;5036400;28;20041;-56
2021/05/22 10:17:01;;;;;;;4.68;2.33;;;15.00;64.10;;;;;;5034805;28;20124;-54
2021/05/22 10:19:27;;;;;;;8.77;2.42;;;15.00;64.10;;;;;;5033987;28;20027;-57
2021/05/22 10:21:53;;;;;;;7.13;2.35;;;15.10;64.10;;;;;;5036570;28;20396;-57
2021/05/22 10:24:18;;;;;;;7.88;2.75;;;15.10;63.80;;;;;;5036084;28;20029;-58
2021/05/22 10:26:44;;;;;;;5.90;2.20;;;14.90;64.20;;;;;;5034579;28;20056;-58
2021/05/22 10:29:11;;;;;;;6.60;1.80;;;15.00;65.20;;;;;;5039401;28;20033;-52
2021/05/22 10:31:41;;;;;;;5.75;2.25;;;15.10;64.80;;;;;;5041679;28;20041;-57
2021/05/22 10:34:27;;;;;;;4.18;2.30;;;15.40;65.50;;;;;;5032832;28;20038;-56
2021/05/22 10:36:55;;;;;;;6.28;2.28;;;15.50;65.40;;;;;;5039713;28;20038;-56
2021/05/22 10:39:40;;;;;;;7.03;2.45;;;15.40;64.90;;;;;;5041007;28;20033;-60
2021/05/22 10:42:09;;;;;;;7.53;2.10;;;15.30;64.40;;;;;;5034346;28;20071;-52
2021/05/22 10:44:38;;;;;;;5.38;2.65;;;15.40;64.90;;;;;;5036270;28;20033;-55
2021/05/22 10:47:06;;;;;;;7.80;2.65;;;15.40;65.30;;;;;;5043131;28;20033;-59
2021/05/22 10:50:01;;;;;;;5.70;2.25;;;15.30;65.70;;;;;;5041729;28;20033;-56
2021/05/22 10:52:29;;;;;;;4.25;2.20;;;15.40;65.70;;;;;;5034521;28;20099;-55
2021/05/22 10:54:58;;;;;;;4.00;2.30;;;15.50;64.50;;;;;;5037008;28;20490;-56
2021/05/22 10:57:25;;;;;;;4.35;2.10;;;15.60;65.50;;;;;;5035299;28;20505;-53
2021/05/22 11:00:16;;;;;;;3.72;1.75;;;15.60;64.30;;;;;;5037917;28;20040;-51
2021/05/22 11:02:52;;;;;;;10.15;2.75;;;15.90;63.60;;;;;;5031117;28;20493;-58
2021/05/22 11:05:24;;;;;;;5.05;2.15;;;16.00;64.10;;;;;;5035294;28;20042;-60
2021/05/22 11:08:12;;;;;;;4.05;2.22;;;16.00;63.90;;;;;;5036844;28;20036;-53
2021/05/22 11:10:51;;;;;;;5.10;2.67;;;15.90;64.50;;;;;;5051150;28;20386;-54
2021/05/22 11:13:23;;;;;;;5.20;2.17;;;15.90;65.40;;;;;;5035115;28;20060;-54
2021/05/22 11:15:55;;;;;;;4.85;2.22;;;15.70;65.30;;;;;;5031594;28;20030;-51
2021/05/22 11:18:49;;;;;;;4.72;2.17;;;15.50;65.70;;;;;;5029387;28;20033;-54
2021/05/22 11:21:19;;;;;;;5.90;2.30;;;15.50;65.00;;;;;;5032468;28;20424;-53
2021/05/22 11:24:06;;;;;;;3.67;1.88;;;15.50;66.00;;;;;;5036958;28;20053;-54
2021/05/22 11:26:52;;;;;;;3.60;2.00;;;15.60;65.80;;;;;;5010179;28;557667;-54
2021/05/22 11:29:18;;;;;;;5.05;2.45;;;15.60;66.90;;;;;;5033806;28;20025;-52
2021/05/22 11:31:44;;;;;;;2.97;2.00;;;15.70;66.00;;;;;;5033634;28;20038;-53
2021/05/22 11:34:25;;;;;;;7.85;2.75;;;15.90;67.10;;;;;;5033454;28;20041;-53
2021/05/22 11:37:09;;;;;;;3.97;1.85;;;15.90;66.00;;;;;;5033266;28;20112;-53
2021/05/22 11:39:45;;;;;;;5.57;2.03;;;15.70;67.10;;;;;;5032905;28;20033;-51
2021/05/22 11:42:35;;;;;;;3.83;1.75;;;15.60;67.20;;;;;;5033839;28;20439;-54
2021/05/22 11:45:03;;;;;;;4.28;2.00;;;15.40;67.60;;;;;;5015480;28;20489;-54
2021/05/22 11:47:34;;;;;;;2.90;2.00;;;15.40;68.00;;;;;;5032512;28;20039;-50
2021/05/22 11:50:00;;;;;;;4.00;1.90;;;15.30;67.90;;;;;;5034353;28;20033;-55
2021/05/22 11:52:27;;;;;;;3.05;1.65;;;15.40;68.10;;;;;;5035580;28;20105;-52
2021/05/22 11:54:53;;;;;;;3.38;1.83;;;15.40;68.10;;;;;;5034588;28;20124;-50
2021/05/22 11:57:19;;;;;;;4.13;1.90;;;15.50;68.00;;;;;;5031754;28;20121;-53
2021/05/22 11:59:44;;;;;;;3.80;2.10;;;15.30;67.60;;;;;;5032315;28;20052;-52
2021/05/22 12:02:10;;;;;;;3.22;1.80;;;15.20;68.50;;;;;;5046961;28;20247;-51
2021/05/22 12:04:47;;;;;;;2.33;1.55;;;15.30;68.50;;;;;;5032364;28;20734;-51
2021/05/22 12:07:13;;;;;;;6.63;2.08;;;15.50;67.90;;;;;;5031122;28;20114;-54
2021/05/22 12:09:38;;;;;;;4.13;1.85;;;15.80;67.40;;;;;;5031507;28;20133;-54
2021/05/22 12:12:08;;;;;;;4.97;2.47;;;16.00;67.20;;;;;;5044848;28;20044;-56
2021/05/22 12:14:41;;;;;;;7.38;1.90;;;16.10;67.00;;;;;;5033289;28;20038;-52
2021/05/22 12:17:09;;;;;;;3.30;1.65;;;15.80;66.40;;;;;;5032793;28;20037;-51
2021/05/22 12:19:39;;;;;;;4.07;1.73;;;15.70;67.40;;;;;;5032440;28;20033;-51
2021/05/22 12:22:05;;;;;;;5.45;2.00;;;15.70;66.90;;;;;;5032049;28;20031;-55
2021/05/22 12:24:31;;;;;;;2.03;1.50;;;15.70;66.80;;;;;;5033254;28;20033;-53
2021/05/22 12:26:58;;;;;;;3.60;1.80;;;15.80;66.60;;;;;;5034226;28;20037;-51
2021/05/22 12:29:26;;;;;;;5.72;1.90;;;16.10;67.20;;;;;;5033937;28;20113;-56
2021/05/22 12:31:58;;;;;;;5.72;2.00;;;16.30;65.70;;;;;;5035415;28;20084;-58
2021/05/22 12:34:27;;;;;;;4.32;2.00;;;16.20;65.80;;;;;;5034280;28;20041;-60
2021/05/22 12:37:03;;;;;;;5.68;2.15;;;16.20;66.50;;;;;;5045796;28;20029;-51
2021/05/22 12:39:42;;;;;;;3.47;1.80;;;16.30;66.60;;;;;;5034716;28;20031;-52
2021/05/22 12:42:15;;;;;;;5.10;2.10;;;16.30;65.20;;;;;;5030766;28;20037;-55
2021/05/22 12:44:41;;;;;;;4.63;1.80;;;16.20;65.00;;;;;;5033178;28;20453;-56
2021/05/22 12:47:07;;;;;;;3.80;1.80;;;16.30;66.10;;;;;;5045925;28;20060;-52
2021/05/22 12:49:32;;;;;;;2.67;1.90;;;16.40;66.40;;;;;;5033385;28;20034;-53
2021/05/22 12:52:03;;;;;;;7.05;2.33;;;16.30;66.90;;;;;;5034317;28;20425;-54